Time;durP1;ratioP1;P1;durP2;ratioP2;P2;SDS_P1;SDS_P2;PMS_P1;PMS_P2;Temp;Humidity;BMP_temperature;BMP_pressure;BME280_temperature;BME280_humidity;BME280_pressure;Samples;Min_cycle;Max_cycle;Signal;HPM_P1;HPM_P2
2021/11/27 00:01:41;;;;;;;29.15;16.67;;;;;;;5.26;65.63;97935.31;4462336;32;35373;-50
2021/11/27 00:04:10;;;;;;;28.45;16.37;;;;;;;5.45;65.16;97939.44;4464058;32;34294;-51
2021/11/27 00:06:38;;;;;;;29.45;16.00;;;;;;;5.29;65.12;97948.19;4463634;32;34893;-54
2021/11/27 00:09:05;;;;;;;27.23;16.42;;;;;;;5.21;65.57;97947.41;4463596;32;35494;-50
2021/11/27 00:11:33;;;;;;;29.33;15.80;;;;;;;5.35;65.24;97949.00;4463735;32;35570;-50
2021/11/27 00:14:02;;;;;;;28.80;17.20;;;;;;;5.38;65.13;97948.97;4463828;32;33929;-54
2021/11/27 00:16:29;;;;;;;27.62;16.12;;;;;;;5.31;65.09;97954.19;4463803;32;36010;-50
2021/11/27 00:18:57;;;;;;;30.08;16.70;;;;;;;5.26;64.88;97950.78;4463591;32;35265;-54
2021/11/27 00:21:25;;;;;;;27.40;16.48;;;;;;;5.09;66.11;97952.66;4463162;32;34575;-50
2021/11/27 00:23:53;;;;;;;28.35;16.87;;;;;;;5.17;65.56;97958.59;4463750;32;36027;-52
2021/11/27 00:26:22;;;;;;;30.60;16.52;;;;;;;5.14;65.30;97958.63;4463443;32;33948;-53
2021/11/27 00:28:50;;;;;;;25.30;15.73;;;;;;;5.37;65.25;97957.56;4462197;32;34870;-55
2021/11/27 00:31:26;;;;;;;30.88;17.42;;;;;;;5.60;64.34;97929.00;4463280;32;35270;-54
2021/11/27 00:33:55;;;;;;;30.83;17.70;;;;;;;5.36;65.11;97934.38;4463612;32;34383;-49
2021/11/27 00:36:23;;;;;;;29.63;17.00;;;;;;;5.37;64.54;97931.78;4462170;32;33971;-56
2021/11/27 00:38:52;;;;;;;29.10;16.17;;;;;;;5.38;64.67;97928.34;4463165;32;34911;-50
2021/11/27 00:41:20;;;;;;;27.33;15.70;;;;;;;5.44;64.90;97928.28;4463210;32;35118;-49
2021/11/27 00:43:48;;;;;;;28.92;16.45;;;;;;;5.27;64.77;97925.03;4462821;32;33305;-49
2021/11/27 00:46:16;;;;;;;29.05;17.00;;;;;;;4.88;65.90;97914.16;4463356;32;34247;-48
2021/11/27 00:48:44;;;;;;;25.30;14.50;;;;;;;5.09;65.09;97919.16;4463055;32;35501;-53
2021/11/27 00:51:18;;;;;;;24.90;14.25;;;;;;;5.25;63.77;97931.88;4463041;32;34838;-51
2021/11/27 00:53:47;;;;;;;25.12;14.52;;;;;;;4.90;65.29;97933.06;4463402;32;33839;-56
2021/11/27 00:56:16;;;;;;;26.17;15.20;;;;;;;5.08;64.81;97945.78;4463023;32;33957;-53
2021/11/27 00:58:45;;;;;;;23.70;14.15;;;;;;;5.14;64.73;97948.31;4462925;32;35055;-52
2021/11/27 01:01:16;;;;;;;22.52;13.32;;;;;;;5.23;64.38;97953.41;4463192;32;34202;-48
2021/11/27 01:03:45;;;;;;;21.27;13.50;;;;;;;5.19;64.11;97949.13;4463008;32;33603;-51
2021/11/27 01:06:21;;;;;;;27.55;15.10;;;;;;;5.18;64.59;97939.72;4449149;32;34722;-48
2021/11/27 01:08:55;;;;;;;24.75;13.45;;;;;;;5.02;65.37;97954.41;4436285;32;35428;-48
2021/11/27 01:11:28;;;;;;;23.70;14.00;;;;;;;5.10;64.68;97946.62;4462635;32;34180;-53
2021/11/27 01:14:00;;;;;;;25.62;14.45;;;;;;;5.20;64.79;97936.25;4461566;32;34021;-53
2021/11/27 01:16:30;;;;;;;23.33;14.10;;;;;;;4.85;65.71;97942.53;4461613;32;33930;-51
2021/11/27 01:18:59;;;;;;;22.92;13.95;;;;;;;4.85;65.76;97939.97;4462805;32;35855;-53
2021/11/27 01:21:29;;;;;;;22.37;13.00;;;;;;;5.06;65.41;97943.25;4462669;32;35051;-47
2021/11/27 01:23:59;;;;;;;19.60;12.02;;;;;;;4.99;64.52;97948.44;4462518;32;32626;-49
2021/11/27 01:26:26;;;;;;;23.70;13.62;;;;;;;4.86;64.94;97957.13;4462967;32;33953;-52
2021/11/27 01:28:54;;;;;;;21.08;12.37;;;;;;;4.94;65.28;97961.38;4461146;32;35827;-51
2021/11/27 01:31:22;;;;;;;23.75;12.63;;;;;;;5.29;63.86;97963.66;4462405;32;34424;-50
2021/11/27 01:33:50;;;;;;;20.98;12.48;;;;;;;5.34;63.61;97970.50;4462779;32;34690;-50
2021/11/27 01:36:17;;;;;;;23.65;12.80;;;;;;;5.22;63.98;97969.72;4464698;32;35015;-49
2021/11/27 01:38:45;;;;;;;19.87;11.68;;;;;;;4.90;64.44;97963.97;4464204;32;34722;-52
2021/11/27 01:41:14;;;;;;;20.90;12.40;;;;;;;5.05;64.86;97971.56;4464327;32;34359;-53
2021/11/27 01:43:43;;;;;;;22.13;12.32;;;;;;;5.06;64.88;97960.41;4464760;32;33699;-55
2021/11/27 01:46:11;;;;;;;22.13;12.63;;;;;;;5.31;64.23;97969.66;4463225;32;33564;-49
2021/11/27 01:48:40;;;;;;;18.87;11.77;;;;;;;5.08;64.58;97953.53;4465004;32;35653;-54
2021/11/27 01:51:13;;;;;;;22.75;12.07;;;;;;;4.92;65.76;97944.22;4463379;32;35320;-51
2021/11/27 01:53:46;;;;;;;19.45;11.38;;;;;;;4.84;65.44;97943.41;4463263;32;33570;-52
2021/11/27 01:56:17;;;;;;;17.85;10.95;;;;;;;4.97;64.99;97948.44;4464238;32;35032;-55
2021/11/27 01:58:46;;;;;;;19.70;11.35;;;;;;;5.07;64.76;97946.66;4464532;32;36355;-50
2021/11/27 02:01:17;;;;;;;18.00;10.75;;;;;;;5.07;64.23;97946.66;4464270;32;34519;-50
2021/11/27 02:03:48;;;;;;;17.93;10.03;;;;;;;5.06;64.11;97944.97;4463400;32;34488;-49
2021/11/27 02:06:18;;;;;;;16.08;10.10;;;;;;;5.12;63.59;97942.31;4464914;32;33594;-54
2021/11/27 02:08:49;;;;;;;16.12;10.05;;;;;;;5.24;63.32;97939.66;4464290;32;34770;-51
2021/11/27 02:11:28;;;;;;;19.12;10.80;;;;;;;5.13;63.94;97937.19;4464433;32;35544;-55
2021/11/27 02:13:57;;;;;;;20.23;12.30;;;;;;;5.07;64.60;97946.66;4464603;32;33954;-53
2021/11/27 02:16:25;;;;;;;19.87;11.77;;;;;;;5.10;64.70;97952.66;4464554;32;33940;-56
2021/11/27 02:18:53;;;;;;;17.85;11.15;;;;;;;5.42;64.39;97947.19;4464252;32;35714;-54
2021/11/27 02:21:22;;;;;;;18.50;10.75;;;;;;;5.55;63.77;97938.50;4463104;32;34315;-50
2021/11/27 02:23:53;;;;;;;20.20;11.40;;;;;;;5.72;63.14;97940.91;4464048;32;34289;-54
2021/11/27 02:26:26;;;;;;;16.95;11.07;;;;;;;5.86;62.82;97942.50;4463992;32;34460;-53
2021/11/27 02:28:58;;;;;;;19.92;11.32;;;;;;;5.92;62.77;97939.84;4464749;32;35867;-55
2021/11/27 02:31:26;;;;;;;18.65;11.48;;;;;;;6.05;62.82;97941.41;4464166;32;35046;-50
2021/11/27 02:33:57;;;;;;;16.85;10.43;;;;;;;5.82;62.65;97942.53;4464490;32;34268;-55
2021/11/27 02:36:26;;;;;;;21.58;11.85;;;;;;;5.69;62.70;97951.25;4462924;32;34110;-50
2021/11/27 02:38:55;;;;;;;21.12;12.02;;;;;;;5.73;62.54;97943.47;4464051;32;34670;-52
2021/11/27 02:41:23;;;;;;;17.77;11.60;;;;;;;5.90;62.19;97949.31;4464133;32;35809;-53
2021/11/27 02:43:50;;;;;;;17.20;11.05;;;;;;;6.04;61.88;97952.59;4464235;32;33537;-54
2021/11/27 02:46:18;;;;;;;17.35;12.18;;;;;;;6.06;61.84;97958.59;4464003;32;33954;-55
2021/11/27 02:48:46;;;;;;;20.00;12.25;;;;;;;6.28;61.33;97972.09;4464482;32;34640;-53
2021/11/27 02:51:13;;;;;;;18.48;11.20;;;;;;;6.04;61.71;97973.25;4463984;32;34449;-53
2021/11/27 02:53:42;;;;;;;17.33;11.12;;;;;;;6.19;60.73;97972.22;4463048;32;33588;-48
2021/11/27 02:56:10;;;;;;;17.75;11.00;;;;;;;6.10;61.25;97978.34;4464839;32;33563;-52
2021/11/27 02:58:38;;;;;;;17.60;11.45;;;;;;;6.04;61.20;97978.41;4450469;32;35204;-51
2021/11/27 03:01:07;;;;;;;18.87;11.15;;;;;;;6.02;61.09;97974.13;4464022;32;34095;-47
2021/11/27 03:03:37;;;;;;;16.73;10.38;;;;;;;6.17;60.47;97979.13;4464654;32;33464;-52
2021/11/27 03:06:05;;;;;;;19.65;11.10;;;;;;;5.99;60.80;97976.78;4464046;32;33904;-53
2021/11/27 03:08:34;;;;;;;17.25;10.90;;;;;;;6.09;60.80;97974.06;4464044;32;35214;-51
2021/11/27 03:11:02;;;;;;;18.73;11.48;;;;;;;6.05;60.58;97968.94;4463842;32;35229;-55
2021/11/27 03:13:33;;;;;;;18.12;11.75;;;;;;;6.23;61.01;97965.31;4464208;32;33857;-53
2021/11/27 03:16:01;;;;;;;16.87;10.40;;;;;;;6.34;60.29;97971.19;4464200;32;34512;-52
2021/11/27 03:18:28;;;;;;;16.12;10.52;;;;;;;6.39;60.44;97974.56;4463908;32;35658;-49
2021/11/27 03:20:56;;;;;;;14.45;9.75;;;;;;;6.06;60.60;97966.34;4463937;32;34305;-52
2021/11/27 03:23:26;;;;;;;18.12;10.85;;;;;;;6.01;60.43;97969.88;4463803;32;33876;-48
2021/11/27 03:25:53;;;;;;;15.98;10.35;;;;;;;6.26;60.19;97978.16;4464018;32;34390;-52
2021/11/27 03:28:21;;;;;;;15.18;9.73;;;;;;;6.29;60.21;97981.56;4464061;32;34864;-52
2021/11/27 03:30:49;;;;;;;15.82;10.48;;;;;;;6.24;60.34;97972.16;4463869;32;34298;-51
2021/11/27 03:33:18;;;;;;;18.23;10.80;;;;;;;6.30;60.24;97975.53;4464206;32;33579;-53
2021/11/27 03:35:46;;;;;;;16.48;10.10;;;;;;;6.51;60.65;97979.59;4462927;32;33741;-51
2021/11/27 03:38:14;;;;;;;14.93;9.57;;;;;;;6.51;60.98;97989.91;4463976;32;34999;-54
2021/11/27 03:40:44;;;;;;;13.77;9.52;;;;;;;6.64;59.88;97981.97;4463815;32;35308;-51
2021/11/27 03:43:11;;;;;;;14.65;9.60;;;;;;;6.75;59.64;97992.19;4462463;32;33770;-52
2021/11/27 03:45:39;;;;;;;13.45;9.30;;;;;;;6.75;59.59;97997.34;4463727;32;35088;-52
2021/11/27 03:48:12;;;;;;;15.57;10.25;;;;;;;6.55;60.24;98007.06;4463465;32;36033;-53
2021/11/27 03:50:45;;;;;;;15.50;9.30;;;;;;;6.50;60.46;98003.69;4463991;32;34838;-53
2021/11/27 03:53:15;;;;;;;14.70;9.88;;;;;;;6.50;60.78;98009.72;4464137;32;33381;-54
2021/11/27 03:55:43;;;;;;;15.30;9.95;;;;;;;6.68;60.42;98014.63;4463691;32;33937;-52
2021/11/27 03:58:11;;;;;;;14.70;9.70;;;;;;;6.51;60.80;98011.41;4462990;32;35059;-51
2021/11/27 04:00:39;;;;;;;15.98;9.93;;;;;;;6.44;61.04;98014.09;4463961;32;35540;-51
2021/11/27 04:03:11;;;;;;;15.65;9.90;;;;;;;6.54;60.88;98008.78;4463947;32;33957;-50
2021/11/27 04:05:45;;;;;;;13.52;9.40;;;;;;;6.61;60.65;97997.50;4463782;32;33643;-54
2021/11/27 04:08:13;;;;;;;13.15;9.23;;;;;;;6.53;60.39;97999.34;4463636;32;35696;-52
2021/11/27 04:10:41;;;;;;;14.10;9.68;;;;;;;6.55;60.49;98007.06;4462304;32;35552;-53
2021/11/27 04:13:09;;;;;;;16.12;10.00;;;;;;;6.65;59.88;98003.50;4463743;32;33677;-53
2021/11/27 04:15:37;;;;;;;14.35;9.27;;;;;;;6.68;59.36;98009.47;4463390;32;34641;-53
2021/11/27 04:18:05;;;;;;;15.73;9.70;;;;;;;6.58;59.53;98009.63;4463421;32;35840;-54
2021/11/27 04:20:33;;;;;;;16.23;10.35;;;;;;;6.49;59.97;98010.56;4463477;32;34337;-55
2021/11/27 04:23:02;;;;;;;14.57;9.98;;;;;;;6.40;59.84;98012.41;4463418;32;33923;-52
2021/11/27 04:25:30;;;;;;;13.95;9.48;;;;;;;6.34;60.36;98012.50;4463626;32;33993;-50
2021/11/27 04:27:57;;;;;;;14.98;9.65;;;;;;;6.39;60.37;98011.59;4463090;32;35648;-55
2021/11/27 04:30:28;;;;;;;16.20;10.43;;;;;;;6.38;60.34;98002.13;4463144;32;34702;-48
2021/11/27 04:32:57;;;;;;;17.33;10.27;;;;;;;6.53;59.79;98008.81;4463211;32;33993;-53
2021/11/27 04:35:27;;;;;;;14.85;9.65;;;;;;;6.57;59.29;98020.81;4463196;32;34226;-52
2021/11/27 04:37:55;;;;;;;13.52;9.00;;;;;;;6.27;59.83;98021.19;4462996;32;35870;-49
2021/11/27 04:40:24;;;;;;;13.82;8.60;;;;;;;6.26;59.71;98028.06;4463179;32;34358;-54
2021/11/27 04:42:52;;;;;;;15.23;9.73;;;;;;;6.33;59.98;98024.56;4463377;32;33826;-54
2021/11/27 04:45:20;;;;;;;14.25;8.48;;;;;;;6.25;60.08;98028.09;4463466;32;34147;-53
2021/11/27 04:47:48;;;;;;;15.10;10.07;;;;;;;6.32;59.75;98022.84;4463219;32;36175;-54
2021/11/27 04:50:17;;;;;;;15.55;8.90;;;;;;;6.11;60.10;98042.00;4463132;32;34781;-51
2021/11/27 04:52:46;;;;;;;12.90;8.77;;;;;;;5.92;60.51;98025.00;4462968;32;34201;-52
2021/11/27 04:55:15;;;;;;;13.23;9.23;;;;;;;5.90;60.48;98021.56;4462022;32;33228;-54
2021/11/27 04:57:46;;;;;;;13.98;9.32;;;;;;;5.74;60.61;98017.41;4462967;32;34640;-51
2021/11/27 05:00:18;;;;;;;12.85;8.65;;;;;;;5.67;60.58;98015.75;4461809;32;35516;-50
2021/11/27 05:02:46;;;;;;;14.98;9.25;;;;;;;5.63;60.84;98015.78;4463210;32;33425;-49
2021/11/27 05:05:14;;;;;;;16.00;9.52;;;;;;;5.21;62.00;98022.13;4462666;32;33829;-50
2021/11/27 05:07:42;;;;;;;13.23;9.02;;;;;;;5.45;61.43;98027.09;4463232;32;35765;-49
2021/11/27 05:10:11;;;;;;;14.05;8.73;;;;;;;5.51;61.50;98036.53;4464762;32;34443;-54
2021/11/27 05:12:39;;;;;;;14.68;9.18;;;;;;;5.77;61.18;98039.75;4465010;32;33319;-53
2021/11/27 05:15:08;;;;;;;15.02;9.73;;;;;;;5.65;61.25;98043.28;4464904;32;34564;-51
2021/11/27 05:17:37;;;;;;;14.60;9.45;;;;;;;5.81;61.22;98052.59;4464902;32;35142;-52
2021/11/27 05:20:07;;;;;;;16.02;9.88;;;;;;;5.88;60.60;98043.09;4465013;32;34338;-51
2021/11/27 05:22:35;;;;;;;15.20;9.45;;;;;;;5.86;61.12;98045.69;4463808;32;34878;-54
2021/11/27 05:25:04;;;;;;;14.32;9.63;;;;;;;5.88;61.25;98043.97;4465041;32;34562;-53
2021/11/27 05:27:35;;;;;;;16.83;10.95;;;;;;;5.96;60.92;98062.81;4465124;32;34773;-51
2021/11/27 05:30:06;;;;;;;15.93;10.60;;;;;;;6.03;60.14;98054.16;4463976;32;34487;-51
2021/11/27 05:35:08;;;;;;;15.80;9.52;;;;;;;5.84;60.80;98041.38;4464753;32;34493;-55
2021/11/27 05:37:36;;;;;;;13.52;9.38;;;;;;;5.81;61.05;98041.41;4464509;32;35047;-51
2021/11/27 05:40:05;;;;;;;17.25;10.80;;;;;;;5.73;60.93;98036.31;4464814;32;34534;-51
2021/11/27 05:42:33;;;;;;;17.23;9.40;;;;;;;5.82;60.67;98038.84;4464338;32;33962;-56
2021/11/27 05:45:00;;;;;;;14.82;9.95;;;;;;;5.87;60.48;98052.56;4464786;32;34677;-51
2021/11/27 05:47:28;;;;;;;17.05;10.95;;;;;;;5.69;60.96;98057.84;4463773;32;35353;-55
2021/11/27 05:49:56;;;;;;;18.08;10.63;;;;;;;5.87;60.46;98060.28;4464262;32;35115;-52
2021/11/27 05:52:26;;;;;;;19.60;11.90;;;;;;;5.80;60.56;98056.03;4464583;32;36342;-56
2021/11/27 05:54:54;;;;;;;19.80;11.60;;;;;;;5.72;60.88;98057.84;4463288;32;34286;-52
2021/11/27 05:57:21;;;;;;;17.87;10.85;;;;;;;5.69;60.78;98064.72;4464327;32;35125;-52
2021/11/27 05:59:49;;;;;;;16.55;10.50;;;;;;;5.75;60.75;98068.09;4464598;32;35092;-52
2021/11/27 06:02:17;;;;;;;15.45;9.73;;;;;;;5.64;60.91;98067.34;4464366;32;34188;-52
2021/11/27 06:04:45;;;;;;;14.20;10.02;;;;;;;5.67;60.70;98077.66;4464598;32;33817;-48
2021/11/27 06:07:12;;;;;;;15.25;10.38;;;;;;;5.31;61.43;98078.78;4464678;32;35156;-50
2021/11/27 06:09:40;;;;;;;19.20;11.68;;;;;;;5.62;60.96;98084.56;4464485;32;34925;-53
2021/11/27 06:12:08;;;;;;;21.35;11.02;;;;;;;5.35;61.52;98102.81;4463244;32;34890;-52
2021/11/27 06:14:35;;;;;;;15.13;11.00;;;;;;;5.45;61.53;98101.88;4465844;32;34629;-51
2021/11/27 06:17:03;;;;;;;20.23;13.45;;;;;;;5.35;69.59;98098.50;4464693;32;35641;-51
2021/11/27 06:19:31;;;;;;;17.50;11.48;;;;;;;5.72;61.99;98108.56;4463587;32;35278;-51
2021/11/27 06:21:58;;;;;;;17.80;10.85;;;;;;;5.67;61.17;98116.34;4464281;32;33828;-50
2021/11/27 06:24:26;;;;;;;17.30;10.50;;;;;;;5.56;61.02;98118.16;4464172;32;34619;-53
2021/11/27 06:26:54;;;;;;;15.35;10.10;;;;;;;5.64;60.97;98124.09;4463101;32;36258;-57
2021/11/27 06:29:21;;;;;;;14.75;10.07;;;;;;;5.67;61.17;98126.66;4463183;32;35536;-51
2021/11/27 06:31:49;;;;;;;17.00;10.23;;;;;;;5.76;60.68;98136.91;4450092;32;34081;-54
2021/11/27 06:34:17;;;;;;;17.02;10.20;;;;;;;5.55;60.91;98139.63;4464325;32;33736;-48
2021/11/27 06:36:44;;;;;;;16.58;11.02;;;;;;;5.74;60.80;98143.81;4464095;32;35977;-52
2021/11/27 06:39:12;;;;;;;17.05;11.23;;;;;;;5.74;60.69;98135.19;4464202;32;34339;-52
2021/11/27 06:41:40;;;;;;;14.60;10.48;;;;;;;5.73;60.70;98136.91;4463727;32;34299;-55
2021/11/27 06:44:08;;;;;;;15.05;10.07;;;;;;;5.54;61.06;98124.19;4464356;32;34200;-48
2021/11/27 06:46:36;;;;;;;17.83;11.38;;;;;;;5.68;61.07;98123.19;4462957;32;35315;-51
2021/11/27 06:49:04;;;;;;;23.65;16.40;;;;;;;5.80;60.80;98127.44;4462511;32;34482;-53
2021/11/27 06:51:32;;;;;;;29.92;18.83;;;;;;;5.89;60.86;98130.81;4464004;32;33547;-49
2021/11/27 06:53:59;;;;;;;26.12;17.27;;;;;;;5.84;60.91;98132.59;4462875;32;34016;-51
2021/11/27 06:56:27;;;;;;;21.90;14.18;;;;;;;5.85;61.05;98129.12;4463873;32;34887;-53
2021/11/27 06:58:54;;;;;;;19.92;12.80;;;;;;;5.77;61.22;98119.72;4464039;32;35291;-52
2021/11/27 07:01:25;;;;;;;21.92;14.07;;;;;;;5.84;61.03;98118.78;4464252;32;34017;-51
2021/11/27 07:03:54;;;;;;;21.08;14.40;;;;;;;5.99;60.70;98122.12;4464398;32;34717;-55
2021/11/27 07:06:23;;;;;;;20.37;13.45;;;;;;;5.90;60.86;98122.19;4464002;32;35399;-53
2021/11/27 07:08:51;;;;;;;20.52;14.05;;;;;;;6.12;60.16;98131.47;4464249;32;34615;-54
2021/11/27 07:11:20;;;;;;;20.12;13.40;;;;;;;6.04;60.89;98142.72;4464037;32;34774;-56
2021/11/27 07:13:48;;;;;;;20.35;13.20;;;;;;;6.10;60.59;98137.53;4462885;32;34270;-53
2021/11/27 07:16:15;;;;;;;19.98;12.75;;;;;;;6.20;60.61;98135.72;4462389;32;35061;-51
2021/11/27 07:18:43;;;;;;;16.27;11.23;;;;;;;6.20;60.64;98146.03;4463423;32;35790;-54
2021/11/27 07:21:12;;;;;;;18.80;12.32;;;;;;;6.33;60.30;98150.19;4463569;32;33609;-51
2021/11/27 07:23:39;;;;;;;19.58;12.70;;;;;;;6.41;60.30;98153.59;4463765;32;33727;-53
2021/11/27 07:26:07;;;;;;;18.58;11.88;;;;;;;6.40;60.34;98172.50;4463998;32;35665;-53
2021/11/27 07:28:35;;;;;;;17.60;11.63;;;;;;;6.47;60.16;98169.88;4464105;32;34951;-52
2021/11/27 07:31:03;;;;;;;18.50;11.75;;;;;;;6.51;59.51;98157.78;4463552;32;34720;-50
2021/11/27 07:33:34;;;;;;;17.03;11.53;;;;;;;6.40;59.26;98150.13;4463692;32;33737;-56
2021/11/27 07:36:01;;;;;;;17.00;11.68;;;;;;;6.36;59.71;98145.03;4463718;32;35548;-53
2021/11/27 07:38:29;;;;;;;18.60;11.85;;;;;;;6.40;60.06;98157.03;4464032;32;34566;-57
2021/11/27 07:40:57;;;;;;;16.25;11.23;;;;;;;6.49;59.78;98165.53;4462606;32;34455;-57
2021/11/27 07:43:26;;;;;;;15.90;11.00;;;;;;;6.60;59.41;98171.47;4463820;32;33730;-51
2021/11/27 07:45:54;;;;;;;16.27;10.90;;;;;;;6.61;59.51;98172.31;4463806;32;34672;-51
2021/11/27 07:48:31;;;;;;;16.62;11.20;;;;;;;6.66;59.80;98162.78;4463157;32;32790;-54
2021/11/27 07:51:04;;;;;;;16.75;11.10;;;;;;;6.69;59.71;98170.50;4464373;32;34269;-51
2021/11/27 07:53:33;;;;;;;19.30;11.27;;;;;;;6.72;59.53;98160.16;4467623;32;33695;-56
2021/11/27 07:56:01;;;;;;;19.23;11.23;;;;;;;6.84;59.16;98167.75;4465321;32;35803;-53
2021/11/27 07:58:28;;;;;;;16.58;10.30;;;;;;;7.07;57.55;98168.34;4466571;32;34475;-50
2021/11/27 08:00:56;;;;;;;16.30;10.43;;;;;;;6.98;57.80;98172.75;4465095;32;33512;-52
2021/11/27 08:03:24;;;;;;;15.85;10.75;;;;;;;6.95;58.25;98159.88;4468156;32;34787;-51
2021/11/27 08:05:52;;;;;;;13.75;8.18;;;;;;;7.02;58.18;98164.97;4468099;32;34841;-47
2021/11/27 08:08:23;;;;;;;14.45;9.93;;;;;;;7.22;73.23;98167.31;4467043;32;35833;-50
2021/11/27 08:10:51;;;;;;;15.20;10.10;;;;;;;7.20;61.47;98154.38;4465986;32;33310;-56
2021/11/27 08:13:18;;;;;;;16.23;11.18;;;;;;;7.30;58.04;98162.88;4465479;32;34537;-53
2021/11/27 08:15:46;;;;;;;16.30;10.75;;;;;;;7.37;58.34;98173.13;4464713;32;34829;-50
2021/11/27 08:18:13;;;;;;;17.00;11.48;;;;;;;7.41;57.77;98166.19;4464570;32;34662;-54
2021/11/27 08:20:46;;;;;;;16.80;10.52;;;;;;;7.23;57.34;98175.03;4464498;32;33292;-54
2021/11/27 08:23:14;;;;;;;14.95;10.30;;;;;;;7.35;57.48;98187.81;4464989;32;35033;-50
2021/11/27 08:25:41;;;;;;;16.12;10.60;;;;;;;7.42;57.06;98194.59;4465125;32;35846;-51
2021/11/27 08:28:09;;;;;;;16.58;9.82;;;;;;;7.59;56.94;98198.69;4465055;32;34800;-51
2021/11/27 08:30:37;;;;;;;13.95;9.80;;;;;;;7.27;57.25;98194.78;4465675;32;33463;-50
2021/11/27 08:33:08;;;;;;;15.85;9.60;;;;;;;7.20;57.45;98211.25;4466474;32;34218;-52
2021/11/27 08:35:35;;;;;;;14.23;9.90;;;;;;;7.43;59.65;98203.22;4467232;32;35568;-49
2021/11/27 08:38:03;;;;;;;16.67;10.10;;;;;;;7.16;57.13;98199.25;4467491;32;35169;-56
2021/11/27 08:40:31;;;;;;;15.95;9.98;;;;;;;7.41;56.92;98192.91;4466224;32;34430;-51
2021/11/27 08:42:58;;;;;;;14.15;9.13;;;;;;;7.24;56.38;98179.34;4466595;32;34527;-53
2021/11/27 08:45:27;;;;;;;16.73;9.80;;;;;;;7.23;57.26;98182.78;4466505;32;35552;-53
2021/11/27 08:47:55;;;;;;;14.82;9.45;;;;;;;7.49;56.68;98178.13;4467666;32;35096;-53
2021/11/27 08:50:22;;;;;;;13.73;10.23;;;;;;;7.60;55.11;98179.72;4467641;32;34231;-51
2021/11/27 08:52:50;;;;;;;16.55;10.55;;;;;;;7.56;55.87;98185.81;4466481;32;33801;-51
2021/11/27 08:55:18;;;;;;;16.52;10.93;;;;;;;7.58;56.18;98181.47;4467121;32;34705;-51
2021/11/27 08:57:46;;;;;;;14.18;9.80;;;;;;;7.55;56.80;98176.34;4467604;32;34193;-56
2021/11/27 09:00:14;;;;;;;17.80;9.90;;;;;;;7.76;56.06;98173.44;4467718;32;33982;-55
2021/11/27 09:02:42;;;;;;;11.82;7.45;;;;;;;7.96;57.11;98184.38;4467265;32;34551;-57
2021/11/27 09:05:09;;;;;;;18.80;9.35;;;;;;;8.15;66.67;98183.19;4468299;32;34682;-57
2021/11/27 09:07:37;;;;;;;15.65;9.52;;;;;;;8.61;60.67;98170.31;4467631;32;35085;-56
2021/11/27 09:10:06;;;;;;;16.48;10.20;;;;;;;8.81;53.59;98158.72;4466891;32;33516;-57
2021/11/27 09:12:34;;;;;;;16.40;9.98;;;;;;;8.91;54.01;98159.41;4465198;32;34089;-53
2021/11/27 09:15:02;;;;;;;16.40;9.18;;;;;;;9.16;51.30;98159.75;4464029;32;34691;-56
2021/11/27 09:17:29;;;;;;;14.80;9.88;;;;;;;8.74;52.74;98172.69;4465839;32;34107;-55
2021/11/27 09:19:57;;;;;;;17.48;10.60;;;;;;;8.64;53.89;98184.09;4466096;32;33494;-57
2021/11/27 09:22:25;;;;;;;16.77;11.38;;;;;;;8.51;53.65;98184.34;4466077;32;34651;-58
2021/11/27 09:24:52;;;;;;;16.42;11.35;;;;;;;8.43;54.02;98187.06;4466265;32;34844;-54
2021/11/27 09:27:20;;;;;;;15.50;10.45;;;;;;;8.58;53.25;98181.59;4466325;32;34267;-55
2021/11/27 09:29:47;;;;;;;18.12;10.73;;;;;;;8.56;53.48;98185.97;4466378;32;33724;-52
2021/11/27 09:32:15;;;;;;;16.40;11.18;;;;;;;8.67;53.70;98183.19;4465952;32;33973;-58
2021/11/27 09:34:44;;;;;;;14.82;9.77;;;;;;;8.65;52.59;98177.19;4465679;32;35869;-56
2021/11/27 09:37:15;;;;;;;16.37;10.82;;;;;;;8.52;52.99;98176.53;4466557;32;34976;-57
2021/11/27 09:39:43;;;;;;;16.33;10.73;;;;;;;8.35;53.28;98182.88;4466777;32;33672;-58
2021/11/27 09:42:17;;;;;;;15.82;10.38;;;;;;;8.50;54.53;98178.31;4465516;32;33743;-53
2021/11/27 09:44:51;;;;;;;16.17;11.07;;;;;;;8.45;54.72;98179.25;4466256;32;34829;-58
2021/11/27 09:47:19;;;;;;;15.48;10.68;;;;;;;8.59;53.79;98185.06;4465861;32;35149;-56
2021/11/27 09:49:48;;;;;;;15.95;10.85;;;;;;;8.20;54.43;98196.94;4467401;32;34027;-55
2021/11/27 09:52:16;;;;;;;17.42;11.05;;;;;;;8.38;54.86;98198.38;4467592;32;33984;-58
2021/11/27 09:54:44;;;;;;;16.60;11.20;;;;;;;8.50;55.18;98185.22;4467664;32;35843;-58
2021/11/27 09:57:12;;;;;;;16.73;11.32;;;;;;;8.46;54.47;98171.44;4469034;32;35167;-58
2021/11/27 09:59:41;;;;;;;19.08;11.20;;;;;;;8.40;55.19;98187.09;4469391;32;34165;-56
2021/11/27 10:02:11;;;;;;;17.92;10.98;;;;;;;8.63;59.20;98191.88;4469651;32;33701;-53
2021/11/27 10:04:43;;;;;;;16.85;10.75;;;;;;;8.70;57.17;98191.75;4469520;32;35597;-49
2021/11/27 10:07:15;;;;;;;16.73;10.57;;;;;;;8.98;54.83;98178.28;4468273;32;35867;-50
2021/11/27 10:09:48;;;;;;;17.65;11.50;;;;;;;9.21;52.40;98176.06;4468427;32;33435;-49
2021/11/27 10:12:20;;;;;;;11.73;7.90;;;;;;;9.28;52.84;98178.50;4469696;32;34569;-57
2021/11/27 10:14:48;;;;;;;15.93;10.27;;;;;;;9.35;57.01;98184.41;4455704;32;34289;-51
2021/11/27 10:17:17;;;;;;;14.52;10.27;;;;;;;9.70;53.54;98183.69;4469326;32;35610;-50
2021/11/27 10:19:53;;;;;;;16.35;10.20;;;;;;;9.81;51.38;98187.75;4469578;32;33532;-53
2021/11/27 10:22:27;;;;;;;18.23;10.82;;;;;;;9.78;50.62;98192.13;4469882;32;33955;-47
2021/11/27 10:24:54;;;;;;;18.10;10.80;;;;;;;9.70;50.59;98176.72;4468364;32;34466;-53
2021/11/27 10:27:27;;;;;;;18.55;11.25;;;;;;;9.77;50.99;98174.88;4468286;32;35584;-49
2021/11/27 10:30:05;;;;;;;16.30;10.05;;;;;;;9.95;49.32;98180.50;4469110;32;33187;-49
2021/11/27 10:32:36;;;;;;;14.87;10.38;;;;;;;10.05;49.24;98179.37;4455901;32;34440;-50
2021/11/27 10:35:10;;;;;;;16.70;9.90;;;;;;;10.06;49.03;98162.91;4468055;32;33680;-54
2021/11/27 10:37:47;;;;;;;18.25;11.40;;;;;;;10.05;49.24;98166.41;4468728;32;35090;-54
2021/11/27 10:40:25;;;;;;;17.33;10.82;;;;;;;9.99;50.13;98163.94;4469742;32;33741;-51
2021/11/27 10:42:58;;;;;;;16.08;10.75;;;;;;;10.15;49.19;98149.72;4469627;32;33756;-49
2021/11/27 10:45:31;;;;;;;19.23;11.68;;;;;;;9.77;50.11;98148.91;4469757;32;35446;-54
2021/11/27 10:48:11;;;;;;;17.48;11.38;;;;;;;9.75;51.64;98161.91;4469543;32;35083;-51
2021/11/27 10:51:00;;;;;;;13.43;9.27;;;;;;;9.80;50.81;98167.00;4468433;32;33538;-49
2021/11/27 10:53:33;;;;;;;15.75;9.68;;;;;;;9.70;51.90;98163.75;4469405;32;34221;-48
2021/11/27 10:56:06;;;;;;;20.27;9.13;;;;;;;9.82;50.59;98163.47;4469564;32;35768;-55
2021/11/27 10:58:53;;;;;;;;;;;;;;;9.85;50.05;98153.03;4455808;32;35017;-50
2021/11/27 11:01:20;;;;;;;13.13;8.75;;;;;;;9.80;50.93;98167.84;4469489;32;33954;-48
2021/11/27 11:03:48;;;;;;;14.70;8.60;;;;;;;9.75;49.89;98185.25;4468229;32;34717;-50
2021/11/27 11:06:22;;;;;;;14.38;9.07;;;;;;;9.78;49.93;98186.94;4469388;32;34846;-49
2021/11/27 11:08:51;;;;;;;13.10;9.20;;;;;;;9.79;50.38;98179.13;4468352;32;34342;-48
2021/11/27 11:11:19;;;;;;;16.02;10.63;;;;;;;9.71;50.75;98167.19;4469467;32;34500;-50
2021/11/27 11:13:54;;;;;;;17.95;10.55;;;;;;;9.79;50.38;98171.34;4469441;32;33769;-54
2021/11/27 11:16:26;;;;;;;21.67;12.82;;;;;;;9.83;50.89;98165.19;4469389;32;35342;-51
2021/11/27 11:19:20;;;;;;;22.52;13.75;;;;;;;9.90;50.91;98155.50;4469434;32;34290;-48
2021/11/27 11:22:07;;;;;;;22.75;12.10;;;;;;;9.86;50.41;98151.28;4469402;32;33913;-50
2021/11/27 11:24:40;;;;;;;18.95;12.57;;;;;;;9.94;50.51;98159.72;4469406;32;34584;-48
2021/11/27 11:27:09;;;;;;;18.85;11.07;;;;;;;10.14;50.17;98153.22;4469377;32;34845;-47
2021/11/27 11:29:44;;;;;;;18.10;11.88;;;;;;;10.08;50.05;98147.25;4468189;32;35143;-53
2021/11/27 11:32:21;;;;;;;16.48;10.32;;;;;;;10.12;49.96;98148.94;4469371;32;34088;-50
2021/11/27 11:34:50;;;;;;;14.77;9.48;;;;;;;9.97;50.45;98146.69;4468150;32;34577;-51
2021/11/27 11:37:18;;;;;;;14.32;9.32;;;;;;;9.97;51.06;98142.34;4469307;32;34679;-49
2021/11/27 11:39:46;;;;;;;15.32;9.02;;;;;;;9.94;49.91;98145.00;4469188;32;34326;-51